Time;durP1;ratioP1;P1;durP2;ratioP2;P2;SDS_P1;SDS_P2;PMS_P1;PMS_P2;Temp;Humidity;BMP_temperature;BMP_pressure;BME280_temperature;BME280_humidity;BME280_pressure;Samples;Min_cycle;Max_cycle;Signal;HPM_P1;HPM_P2
2023/12/31 00:02:02;;;;;;;0.70;0.53;;;8.80;99.90;;;;;;5029325;28;20201;-81
2023/12/31 00:04:29;;;;;;;0.60;0.50;;;8.80;99.90;;;;;;5022259;28;20440;-79
2023/12/31 00:06:55;;;;;;;2.10;0.65;;;8.70;99.90;;;;;;5025599;28;20196;-78
2023/12/31 00:09:22;;;;;;;0.90;0.60;;;8.70;99.90;;;;;;5025487;28;20216;-80
2023/12/31 00:11:49;;;;;;;0.50;0.50;;;8.70;99.90;;;;;;5022063;28;20490;-80
2023/12/31 00:14:16;;;;;;;0.50;0.40;;;8.80;99.90;;;;;;5021523;28;20217;-80
2023/12/31 00:16:42;;;;;;;0.70;0.50;;;8.80;99.90;;;;;;5021482;28;20212;-81
2023/12/31 00:19:10;;;;;;;1.00;0.75;;;8.80;99.90;;;;;;5021744;28;20595;-80
2023/12/31 00:21:42;;;;;;;0.50;0.40;;;8.80;99.90;;;;;;5029917;28;20204;-80
2023/12/31 00:24:09;;;;;;;0.50;0.40;;;8.80;99.90;;;;;;5018807;28;20203;-80
2023/12/31 00:26:36;;;;;;;0.50;0.40;;;8.80;99.90;;;;;;5015833;28;20196;-81
2023/12/31 00:29:03;;;;;;;1.35;1.20;;;8.80;99.90;;;;;;5021440;28;20228;-79
2023/12/31 00:31:29;;;;;;;0.50;0.40;;;8.80;99.90;;;;;;5021663;28;20207;-81
2023/12/31 00:33:57;;;;;;;1.05;0.50;;;8.80;99.90;;;;;;5013680;28;20680;-80
2023/12/31 00:36:26;;;;;;;0.82;0.82;;;8.80;99.90;;;;;;5021632;28;20262;-81
2023/12/31 00:38:53;;;;;;;0.68;0.60;;;8.80;99.90;;;;;;5024124;28;20223;-78
2023/12/31 00:41:20;;;;;;;0.50;0.40;;;8.80;99.90;;;;;;5017833;28;20200;-80
2023/12/31 00:43:46;;;;;;;2.13;1.95;;;8.80;99.90;;;;;;5023025;28;20192;-81
2023/12/31 00:46:13;;;;;;;0.70;0.70;;;8.80;99.90;;;;;;5019154;28;20207;-81
2023/12/31 00:48:40;;;;;;;0.50;0.40;;;8.80;99.90;;;;;;5020959;28;20224;-80
2023/12/31 00:51:07;;;;;;;1.08;0.88;;;8.80;99.90;;;;;;5021222;28;20439;-80
2023/12/31 00:53:35;;;;;;;0.50;0.40;;;8.80;99.90;;;;;;5021020;28;20713;-78
2023/12/31 00:56:02;;;;;;;0.60;0.50;;;8.80;99.90;;;;;;5024283;28;20196;-81
2023/12/31 00:58:29;;;;;;;0.88;0.75;;;8.80;99.90;;;;;;5024766;28;20228;-80
2023/12/31 01:00:55;;;;;;;1.00;0.97;;;8.80;99.90;;;;;;5020862;28;20196;-78
2023/12/31 01:03:22;;;;;;;1.02;0.60;;;8.70;99.90;;;;;;5021083;28;20447;-81
2023/12/31 01:05:49;;;;;;;0.60;0.60;;;8.70;99.90;;;;;;5022886;28;20211;-80
2023/12/31 01:08:16;;;;;;;0.70;0.70;;;8.70;99.90;;;;;;5024091;28;20242;-81
2023/12/31 01:10:44;;;;;;;0.85;0.85;;;8.70;99.90;;;;;;5022694;28;20292;-80
2023/12/31 01:13:11;;;;;;;1.27;0.60;;;8.80;99.90;;;;;;5020529;28;20192;-81
2023/12/31 01:15:37;;;;;;;1.15;0.70;;;8.70;99.90;;;;;;5020903;28;20212;-80
2023/12/31 01:18:04;;;;;;;0.50;0.50;;;8.70;99.90;;;;;;5020209;28;20193;-80
2023/12/31 01:20:31;;;;;;;5.17;1.87;;;8.70;99.90;;;;;;5020165;28;20210;-81
2023/12/31 01:22:58;;;;;;;0.70;0.70;;;8.70;99.90;;;;;;5028260;28;20789;-81
2023/12/31 01:25:25;;;;;;;0.80;0.80;;;8.80;99.90;;;;;;5019085;28;20445;-80
2023/12/31 01:27:55;;;;;;;0.50;0.40;;;8.80;99.90;;;;;;5021765;28;20196;-78
2023/12/31 01:30:22;;;;;;;1.88;1.25;;;8.80;99.90;;;;;;5026678;28;20655;-81
2023/12/31 01:32:50;;;;;;;0.77;0.77;;;8.90;99.90;;;;;;5015459;28;20207;-81
2023/12/31 01:35:16;;;;;;;0.50;0.40;;;8.90;99.90;;;;;;5026295;28;20209;-81
2023/12/31 01:37:43;;;;;;;0.50;0.40;;;8.90;99.90;;;;;;5020537;28;20203;-80
2023/12/31 01:40:10;;;;;;;3.80;1.05;;;9.00;99.90;;;;;;5016748;28;20618;-80
2023/12/31 01:42:37;;;;;;;2.13;1.80;;;9.00;99.90;;;;;;5023855;28;20197;-79
2023/12/31 01:45:06;;;;;;;0.50;0.40;;;9.10;99.90;;;;;;5016083;28;20188;-79
2023/12/31 01:47:33;;;;;;;0.60;0.60;;;9.10;99.90;;;;;;5015836;28;20439;-80
2023/12/31 01:50:03;;;;;;;0.50;0.40;;;9.10;99.90;;;;;;5022794;28;20466;-80
2023/12/31 01:52:30;;;;;;;1.05;0.95;;;9.20;99.90;;;;;;5023742;28;20200;-80
2023/12/31 01:55:00;;;;;;;1.83;0.80;;;9.20;99.90;;;;;;5021300;28;20223;-80
2023/12/31 01:57:31;;;;;;;8.48;1.23;;;9.20;99.90;;;;;;5020210;28;20444;-80
2023/12/31 01:59:59;;;;;;;0.50;0.40;;;9.20;99.90;;;;;;5012134;28;20224;-80
2023/12/31 02:02:27;;;;;;;0.50;0.50;;;9.20;99.90;;;;;;5018247;28;20200;-81
2023/12/31 02:04:54;;;;;;;1.42;0.85;;;9.20;99.90;;;;;;5031867;28;20196;-80
2023/12/31 02:07:21;;;;;;;0.60;0.50;;;9.20;99.90;;;;;;5031659;28;20191;-79
2023/12/31 02:09:47;;;;;;;0.82;0.70;;;9.20;99.90;;;;;;5031531;28;20726;-81
2023/12/31 02:12:14;;;;;;;2.17;1.67;;;9.20;99.90;;;;;;5019081;28;20192;-81
2023/12/31 02:14:41;;;;;;;0.80;0.50;;;9.20;99.90;;;;;;5011662;28;20270;-81
2023/12/31 02:17:08;;;;;;;0.57;0.55;;;9.20;99.90;;;;;;5003941;28;20200;-80
2023/12/31 02:19:36;;;;;;;0.70;0.70;;;9.10;99.90;;;;;;5012070;28;20212;-80
2023/12/31 02:22:03;;;;;;;0.98;0.55;;;9.20;99.90;;;;;;5011939;28;20572;-81
2023/12/31 02:24:35;;;;;;;0.82;0.82;;;9.10;99.90;;;;;;5012126;28;20201;-80
2023/12/31 02:27:04;;;;;;;2.90;1.02;;;9.00;99.90;;;;;;5030497;28;20203;-80
2023/12/31 02:29:30;;;;;;;0.82;0.80;;;9.00;99.90;;;;;;5025355;28;20596;-80
2023/12/31 02:31:57;;;;;;;0.50;0.40;;;9.10;99.90;;;;;;5021919;28;20196;-80
2023/12/31 02:34:24;;;;;;;0.50;0.50;;;9.10;99.90;;;;;;5031897;28;20211;-81
2023/12/31 02:36:51;;;;;;;0.60;0.50;;;9.00;99.90;;;;;;5035494;28;20216;-80
2023/12/31 02:39:17;;;;;;;0.50;0.40;;;9.00;99.90;;;;;;5022422;28;20212;-80
2023/12/31 02:41:44;;;;;;;0.60;0.55;;;9.00;99.90;;;;;;5023612;28;20200;-79
2023/12/31 02:44:12;;;;;;;0.90;0.90;;;9.00;99.90;;;;;;5035364;28;20201;-80
2023/12/31 02:46:39;;;;;;;0.52;0.50;;;9.00;99.90;;;;;;5035370;28;20196;-80
2023/12/31 02:49:08;;;;;;;0.60;0.57;;;9.00;99.90;;;;;;5016023;28;20223;-80
2023/12/31 02:51:36;;;;;;;1.30;1.20;;;9.00;99.90;;;;;;5015556;28;20730;-79
2023/12/31 02:54:03;;;;;;;0.85;0.70;;;8.90;99.90;;;;;;5015222;28;20255;-78
2023/12/31 02:56:30;;;;;;;0.50;0.40;;;8.90;99.90;;;;;;5015770;28;20196;-80
2023/12/31 02:58:57;;;;;;;0.52;0.52;;;8.90;99.90;;;;;;5015222;28;20295;-80
2023/12/31 03:01:25;;;;;;;0.50;0.50;;;8.90;99.90;;;;;;5015440;28;20192;-80
2023/12/31 03:03:52;;;;;;;0.82;0.82;;;9.00;99.90;;;;;;5015935;28;20595;-81
2023/12/31 03:06:18;;;;;;;1.20;1.13;;;9.00;99.90;;;;;;5035145;28;20187;-79
2023/12/31 03:08:45;;;;;;;0.82;0.60;;;9.00;99.90;;;;;;5026790;28;20216;-80
2023/12/31 03:11:12;;;;;;;0.55;0.47;;;9.00;99.90;;;;;;5018923;28;20651;-80
2023/12/31 03:13:39;;;;;;;0.50;0.40;;;9.00;99.90;;;;;;5026512;28;20199;-81
2023/12/31 03:16:06;;;;;;;0.90;0.55;;;9.00;99.90;;;;;;5015670;28;20479;-79
2023/12/31 03:18:34;;;;;;;0.60;0.60;;;9.00;99.90;;;;;;5014780;28;20223;-80
2023/12/31 03:21:01;;;;;;;1.37;0.80;;;9.00;99.90;;;;;;5014768;28;20196;-80
2023/12/31 03:23:28;;;;;;;0.50;0.50;;;9.10;99.90;;;;;;5028834;28;20945;-80
2023/12/31 03:25:55;;;;;;;2.40;0.90;;;9.10;99.90;;;;;;5034481;28;20199;-80
2023/12/31 03:28:22;;;;;;;1.80;0.95;;;9.10;99.90;;;;;;5034294;28;20211;-79
2023/12/31 03:30:49;;;;;;;1.55;1.45;;;9.10;99.90;;;;;;5018200;28;20801;-79
2023/12/31 03:33:15;;;;;;;0.68;0.40;;;9.10;99.90;;;;;;5014525;28;20204;-80
2023/12/31 03:35:43;;;;;;;1.20;1.10;;;9.10;99.90;;;;;;5021974;28;20222;-80
2023/12/31 03:38:10;;;;;;;2.15;2.05;;;9.10;99.90;;;;;;5015109;28;20196;-80
2023/12/31 03:40:37;;;;;;;0.50;0.40;;;9.10;99.90;;;;;;5014667;28;20207;-81
2023/12/31 03:43:04;;;;;;;0.50;0.45;;;9.10;99.90;;;;;;5024782;28;20193;-81
2023/12/31 03:45:31;;;;;;;0.70;0.70;;;9.10;99.90;;;;;;5020315;28;20201;-80
2023/12/31 03:47:57;;;;;;;2.38;1.40;;;9.10;99.90;;;;;;5022573;28;20207;-80
2023/12/31 03:50:24;;;;;;;0.50;0.50;;;9.10;99.90;;;;;;5034294;28;20198;-80
2023/12/31 03:52:52;;;;;;;0.50;0.40;;;9.10;99.90;;;;;;5033858;28;20204;-79
2023/12/31 03:55:19;;;;;;;1.02;0.60;;;9.10;99.90;;;;;;5018136;28;20841;-78
2023/12/31 03:57:45;;;;;;;0.70;0.68;;;9.00;99.90;;;;;;5034204;28;20655;-80
2023/12/31 04:00:12;;;;;;;0.60;0.55;;;9.00;99.90;;;;;;5022515;28;20220;-80
2023/12/31 04:02:38;;;;;;;0.52;0.45;;;9.00;99.90;;;;;;5021289;28;20200;-81
2023/12/31 04:05:06;;;;;;;1.02;0.82;;;9.00;99.90;;;;;;5015925;28;20197;-80
2023/12/31 04:07:33;;;;;;;2.15;2.05;;;9.10;99.90;;;;;;5027844;28;20282;-80
2023/12/31 04:10:01;;;;;;;1.42;1.10;;;9.10;99.90;;;;;;5026108;28;20226;-80
2023/12/31 04:12:28;;;;;;;0.60;0.60;;;9.10;99.90;;;;;;5034521;28;20199;-80
2023/12/31 04:14:55;;;;;;;1.20;1.10;;;9.10;99.90;;;;;;5033522;28;20215;-80
2023/12/31 04:17:21;;;;;;;0.50;0.40;;;9.10;99.90;;;;;;5021619;28;20200;-81
2023/12/31 04:19:48;;;;;;;1.80;0.88;;;9.20;99.90;;;;;;5029996;28;20216;-81
2023/12/31 04:22:15;;;;;;;0.70;0.70;;;9.20;99.90;;;;;;5033650;28;20218;-80
2023/12/31 04:24:41;;;;;;;1.55;0.70;;;9.20;99.90;;;;;;5025270;28;20203;-81
2023/12/31 04:27:10;;;;;;;1.10;0.90;;;9.20;99.90;;;;;;5031515;28;20207;-77
2023/12/31 04:29:36;;;;;;;4.40;1.60;;;9.20;99.90;;;;;;5031754;28;20223;-80
2023/12/31 04:32:03;;;;;;;0.70;0.60;;;9.20;99.90;;;;;;5039715;28;20224;-78
2023/12/31 04:34:30;;;;;;;0.65;0.60;;;9.30;99.90;;;;;;5031783;28;20202;-80
2023/12/31 04:36:57;;;;;;;0.50;0.43;;;9.30;99.90;;;;;;5031635;28;20197;-78
2023/12/31 04:39:24;;;;;;;0.60;0.60;;;9.30;99.90;;;;;;5030890;28;20280;-80
2023/12/31 04:41:51;;;;;;;0.85;0.85;;;9.30;99.90;;;;;;5039905;28;20181;-80
2023/12/31 04:44:19;;;;;;;0.70;0.70;;;9.30;99.90;;;;;;5034200;28;20200;-80
2023/12/31 04:46:46;;;;;;;0.80;0.80;;;9.30;99.90;;;;;;5036008;28;20283;-81
2023/12/31 04:49:14;;;;;;;0.70;0.70;;;9.30;99.90;;;;;;5050120;28;20486;-80
2023/12/31 04:51:40;;;;;;;1.65;1.10;;;9.30;99.90;;;;;;5051077;28;20208;-80
2023/12/31 04:54:08;;;;;;;0.70;0.50;;;9.30;99.90;;;;;;5042468;28;20214;-79
2023/12/31 04:56:35;;;;;;;0.73;0.73;;;9.30;99.90;;;;;;5037051;28;20243;-80
2023/12/31 04:59:02;;;;;;;1.52;1.42;;;9.30;99.90;;;;;;5028242;28;20224;-81
2023/12/31 05:01:32;;;;;;;0.82;0.55;;;9.30;99.90;;;;;;5020428;28;20201;-80
2023/12/31 05:03:59;;;;;;;1.83;0.90;;;9.30;99.90;;;;;;5013684;28;20279;-80
2023/12/31 05:06:27;;;;;;;1.55;1.08;;;9.30;99.90;;;;;;5021233;28;20440;-81
2023/12/31 05:08:53;;;;;;;1.33;1.23;;;9.40;99.90;;;;;;5028760;28;20215;-80
2023/12/31 05:11:20;;;;;;;0.50;0.40;;;9.40;99.90;;;;;;5016360;28;20199;-81
2023/12/31 05:13:47;;;;;;;0.70;0.65;;;9.40;99.90;;;;;;5032491;28;20444;-80
2023/12/31 05:16:15;;;;;;;0.60;0.50;;;9.40;99.90;;;;;;5032518;28;20727;-81
2023/12/31 05:18:44;;;;;;;0.50;0.50;;;9.40;99.90;;;;;;5026649;28;20224;-81
2023/12/31 05:21:12;;;;;;;0.98;0.73;;;9.30;99.90;;;;;;5012796;28;20493;-81
2023/12/31 05:23:38;;;;;;;0.60;0.57;;;9.30;99.90;;;;;;5013157;28;20200;-81
2023/12/31 05:26:05;;;;;;;2.17;0.50;;;9.30;99.90;;;;;;5012653;28;20200;-79
2023/12/31 05:28:32;;;;;;;0.80;0.80;;;9.20;99.90;;;;;;5025459;28;20524;-81
2023/12/31 05:30:59;;;;;;;0.65;0.50;;;9.20;99.90;;;;;;5024536;28;20447;-77
2023/12/31 05:33:26;;;;;;;1.75;1.25;;;9.20;99.90;;;;;;5012582;28;20207;-81
2023/12/31 05:35:54;;;;;;;1.63;1.00;;;9.20;99.90;;;;;;5012655;28;20224;-80
2023/12/31 05:38:20;;;;;;;1.60;0.87;;;9.20;99.90;;;;;;5012420;28;20220;-80
2023/12/31 05:40:47;;;;;;;1.00;1.00;;;9.30;99.90;;;;;;5014508;28;20453;-80
2023/12/31 05:43:14;;;;;;;0.70;0.60;;;9.20;99.90;;;;;;5020692;28;20201;-81
2023/12/31 05:45:41;;;;;;;0.60;0.40;;;9.20;99.90;;;;;;5026023;28;20192;-80
2023/12/31 05:48:08;;;;;;;0.50;0.40;;;9.20;99.90;;;;;;5032381;28;20199;-80
2023/12/31 05:50:35;;;;;;;0.70;0.60;;;9.30;99.90;;;;;;5032410;28;20461;-80
2023/12/31 05:53:03;;;;;;;0.50;0.40;;;9.30;99.90;;;;;;5032383;28;20721;-78
2023/12/31 05:55:31;;;;;;;0.50;0.40;;;9.40;99.90;;;;;;5028184;28;20243;-80
2023/12/31 05:57:58;;;;;;;2.43;1.37;;;9.40;99.90;;;;;;5020111;28;20449;-80
2023/12/31 06:00:25;;;;;;;0.60;0.55;;;9.40;99.90;;;;;;5023631;28;20500;-80
2023/12/31 06:02:52;;;;;;;1.27;1.17;;;9.40;99.90;;;;;;5025083;28;20206;-81
2023/12/31 06:05:19;;;;;;;2.78;0.60;;;9.50;99.90;;;;;;5030968;28;20449;-80
2023/12/31 06:07:45;;;;;;;0.50;0.50;;;9.50;99.90;;;;;;5031702;28;20196;-80
2023/12/31 06:10:14;;;;;;;0.80;0.70;;;9.50;99.90;;;;;;5031206;28;20227;-80
2023/12/31 06:12:40;;;;;;;0.70;0.70;;;9.50;99.90;;;;;;5031614;28;20196;-80
2023/12/31 06:15:09;;;;;;;0.65;0.65;;;9.50;99.90;;;;;;5023177;28;20196;-80
2023/12/31 06:17:36;;;;;;;1.00;0.90;;;9.50;99.90;;;;;;5012106;28;20525;-80
2023/12/31 06:20:04;;;;;;;1.30;1.15;;;9.50;99.90;;;;;;5019963;28;20215;-80
2023/12/31 06:22:31;;;;;;;0.63;0.60;;;9.60;99.90;;;;;;5008164;28;20465;-80
2023/12/31 06:24:58;;;;;;;0.60;0.50;;;9.50;99.90;;;;;;5024958;28;20201;-80
2023/12/31 06:27:26;;;;;;;0.50;0.50;;;9.50;99.90;;;;;;5014604;28;21240;-80
2023/12/31 06:29:53;;;;;;;0.75;0.73;;;9.50;99.90;;;;;;5017204;28;20219;-80
2023/12/31 06:32:21;;;;;;;0.73;0.73;;;9.50;99.90;;;;;;5030860;28;20245;-80
2023/12/31 06:34:48;;;;;;;4.20;1.00;;;9.50;99.90;;;;;;5036539;28;20199;-80
2023/12/31 06:37:14;;;;;;;1.10;0.80;;;9.50;99.90;;;;;;5016948;28;20471;-80
2023/12/31 06:39:42;;;;;;;0.93;0.82;;;9.50;99.90;;;;;;5020029;28;20854;-80
2023/12/31 06:42:09;;;;;;;1.70;1.58;;;9.50;99.90;;;;;;5025783;28;20189;-80
2023/12/31 06:44:37;;;;;;;0.50;0.40;;;9.50;99.90;;;;;;5014084;28;20215;-81
2023/12/31 06:47:04;;;;;;;1.08;0.95;;;9.60;99.90;;;;;;5022517;28;20203;-81
2023/12/31 06:49:31;;;;;;;0.50;0.40;;;9.50;99.90;;;;;;5022326;28;20216;-81
2023/12/31 06:51:58;;;;;;;1.15;0.95;;;9.60;99.90;;;;;;5023473;28;20196;-80
2023/12/31 06:54:25;;;;;;;0.70;0.70;;;9.60;99.90;;;;;;5030625;28;20196;-81
2023/12/31 06:56:51;;;;;;;2.80;1.08;;;9.70;99.90;;;;;;5016066;28;20220;-81
2023/12/31 06:59:18;;;;;;;11.10;1.10;;;9.70;99.90;;;;;;5030387;28;20242;-80
2023/12/31 07:01:46;;;;;;;2.17;1.35;;;9.70;99.90;;;;;;5037419;28;20437;-81
2023/12/31 07:04:13;;;;;;;1.93;1.83;;;9.70;99.90;;;;;;5030417;28;20188;-81
2023/12/31 07:06:39;;;;;;;0.80;0.80;;;9.80;99.90;;;;;;5015692;28;20434;-81
2023/12/31 07:09:06;;;;;;;1.17;1.08;;;9.80;99.90;;;;;;5020145;28;20217;-80
2023/12/31 07:11:33;;;;;;;0.82;0.82;;;9.80;99.90;;;;;;5043056;28;20255;-79
2023/12/31 07:14:00;;;;;;;1.45;1.35;;;9.80;99.90;;;;;;5027483;28;20200;-79
2023/12/31 07:16:27;;;;;;;0.65;0.65;;;9.80;99.90;;;;;;5041462;28;20230;-80
2023/12/31 07:18:56;;;;;;;3.00;1.05;;;9.80;99.90;;;;;;5028929;28;20220;-79
2023/12/31 07:21:23;;;;;;;0.60;0.60;;;9.80;99.90;;;;;;5041575;28;20721;-79
2023/12/31 07:23:50;;;;;;;0.50;0.50;;;9.80;99.90;;;;;;5038249;28;20430;-80
2023/12/31 07:26:25;;;;;;;1.30;1.20;;;9.80;99.90;;;;;;5037076;28;20431;-79
2023/12/31 07:28:52;;;;;;;0.77;0.77;;;9.80;99.90;;;;;;5030143;28;20246;-79
2023/12/31 07:31:19;;;;;;;1.37;1.27;;;9.90;99.90;;;;;;5028083;28;20438;-80
2023/12/31 07:33:46;;;;;;;0.97;0.63;;;9.90;99.90;;;;;;5044068;28;20876;-80
2023/12/31 07:36:14;;;;;;;0.70;0.70;;;9.90;99.90;;;;;;5035162;28;20481;-79
2023/12/31 07:38:42;;;;;;;0.95;0.95;;;9.90;99.90;;;;;;5032135;28;20455;-81
2023/12/31 07:41:12;;;;;;;1.00;1.00;;;9.90;99.90;;;;;;5031282;28;20717;-81
2023/12/31 07:43:39;;;;;;;0.73;0.53;;;9.90;99.90;;;;;;5012895;28;20487;-80
2023/12/31 07:46:06;;;;;;;0.50;0.40;;;9.90;99.90;;;;;;5025914;28;20426;-81
2023/12/31 07:48:32;;;;;;;0.60;0.50;;;10.00;99.90;;;;;;5034805;28;20455;-82
2023/12/31 07:50:59;;;;;;;1.70;0.57;;;10.00;99.90;;;;;;5024636;28;20496;-78
2023/12/31 07:53:27;;;;;;;1.50;1.40;;;10.00;99.90;;;;;;5036194;28;20461;-82
2023/12/31 07:55:54;;;;;;;0.60;0.50;;;10.00;99.90;;;;;;5032085;28;20480;-82
2023/12/31 07:58:24;;;;;;;0.60;0.60;;;9.90;99.90;;;;;;5035844;28;21007;-81
2023/12/31 08:00:51;;;;;;;0.90;0.90;;;9.80;99.90;;;;;;5018600;28;20256;-81
2023/12/31 08:03:18;;;;;;;0.50;0.43;;;9.80;99.90;;;;;;5028048;28;20966;-81
2023/12/31 08:05:44;;;;;;;0.50;0.40;;;9.80;99.90;;;;;;5038759;28;20500;-81
2023/12/31 08:08:12;;;;;;;1.13;1.03;;;9.80;99.90;;;;;;5037655;28;20431;-81
2023/12/31 08:10:41;;;;;;;0.97;0.87;;;9.80;99.90;;;;;;5034046;28;20436;-81
2023/12/31 08:13:08;;;;;;;0.50;0.50;;;9.90;99.90;;;;;;5033355;28;20439;-82
2023/12/31 08:15:34;;;;;;;0.60;0.60;;;9.90;99.90;;;;;;5034131;28;20432;-79
2023/12/31 08:18:02;;;;;;;1.67;1.13;;;10.00;99.90;;;;;;5024372;28;20440;-82
2023/12/31 08:20:29;;;;;;;0.70;0.70;;;10.00;99.90;;;;;;5021203;28;20444;-81
2023/12/31 08:22:56;;;;;;;0.50;0.40;;;10.00;99.90;;;;;;5032245;28;20435;-81
2023/12/31 08:25:22;;;;;;;0.60;0.50;;;10.00;99.90;;;;;;5026816;28;20446;-82
2023/12/31 08:27:51;;;;;;;1.20;1.10;;;10.00;99.90;;;;;;5032313;28;20427;-82
2023/12/31 08:30:17;;;;;;;0.90;0.70;;;10.00;99.90;;;;;;5017539;28;20456;-81
2023/12/31 08:32:44;;;;;;;1.80;1.70;;;10.00;99.90;;;;;;5029101;28;20442;-80
2023/12/31 08:35:11;;;;;;;0.80;0.80;;;10.00;99.90;;;;;;5021035;28;20431;-81
2023/12/31 08:37:37;;;;;;;0.60;0.60;;;10.00;99.90;;;;;;5033209;28;20486;-80
2023/12/31 08:40:06;;;;;;;0.70;0.60;;;10.00;99.90;;;;;;5025423;28;20546;-82
2023/12/31 08:42:33;;;;;;;2.10;2.00;;;10.00;99.90;;;;;;5024888;28;20453;-82
2023/12/31 08:45:03;;;;;;;1.20;1.07;;;10.00;99.90;;;;;;5023079;28;20444;-82
2023/12/31 08:47:30;;;;;;;0.80;0.80;;;10.00;99.90;;;;;;5018427;28;20704;-82
2023/12/31 08:49:56;;;;;;;1.37;0.80;;;10.10;99.90;;;;;;5025542;28;20571;-80
2023/12/31 08:52:23;;;;;;;0.77;0.50;;;10.10;99.90;;;;;;5016923;28;20448;-82
2023/12/31 08:54:50;;;;;;;0.60;0.50;;;10.10;99.90;;;;;;5024119;28;20442;-82
2023/12/31 08:57:16;;;;;;;1.73;0.80;;;10.10;99.90;;;;;;5033173;28;20475;-82
2023/12/31 08:59:43;;;;;;;1.30;1.03;;;10.10;99.90;;;;;;5017150;28;20463;-82
2023/12/31 09:02:12;;;;;;;0.50;0.40;;;10.10;99.90;;;;;;5016618;28;20435;-82
2023/12/31 09:04:38;;;;;;;0.70;0.50;;;10.10;99.90;;;;;;5019425;28;20562;-82
2023/12/31 09:07:05;;;;;;;1.20;1.10;;;10.10;99.90;;;;;;5027895;28;20438;-81
2023/12/31 09:09:32;;;;;;;1.70;1.60;;;10.10;99.90;;;;;;5028020;28;20463;-81
2023/12/31 09:11:59;;;;;;;1.83;1.73;;;10.20;99.90;;;;;;5022790;28;20567;-82
2023/12/31 09:14:26;;;;;;;3.23;2.40;;;10.20;99.90;;;;;;5016847;28;20439;-82
2023/12/31 09:16:52;;;;;;;0.97;0.40;;;10.30;99.90;;;;;;5023380;28;20475;-82
2023/12/31 09:19:20;;;;;;;1.53;1.43;;;10.30;99.90;;;;;;5031977;28;21120;-81
2023/12/31 09:21:47;;;;;;;1.97;1.30;;;10.30;99.90;;;;;;5016582;28;20436;-82
2023/12/31 09:24:14;;;;;;;2.10;1.57;;;10.40;99.90;;;;;;5031770;28;20513;-81
2023/12/31 09:26:41;;;;;;;0.80;0.80;;;10.50;99.90;;;;;;5024977;28;20457;-82
2023/12/31 09:29:07;;;;;;;0.50;0.50;;;10.40;99.90;;;;;;5030449;28;20803;-82
2023/12/31 09:31:34;;;;;;;1.00;0.80;;;10.40;99.90;;;;;;5035897;28;20438;-81
2023/12/31 09:34:01;;;;;;;0.83;0.80;;;10.40;99.90;;;;;;5036271;28;20525;-82
2023/12/31 09:36:29;;;;;;;0.70;0.67;;;10.40;99.90;;;;;;5035483;28;20470;-82
2023/12/31 09:38:56;;;;;;;0.83;0.73;;;10.50;99.90;;;;;;5022851;28;20470;-82
2023/12/31 09:41:24;;;;;;;0.67;0.67;;;10.50;99.90;;;;;;5032641;28;20434;-80
2023/12/31 09:43:54;;;;;;;0.53;0.53;;;10.50;99.90;;;;;;5031384;28;20443;-81
2023/12/31 09:46:22;;;;;;;1.60;1.20;;;10.50;99.90;;;;;;5015589;28;20513;-81
2023/12/31 09:48:50;;;;;;;1.93;0.90;;;10.50;99.90;;;;;;5016326;28;20451;-81
2023/12/31 09:51:17;;;;;;;0.90;0.87;;;10.50;99.90;;;;;;5030725;28;20457;-81
2023/12/31 09:53:46;;;;;;;0.90;0.77;;;10.50;99.90;;;;;;5023702;28;20431;-81
2023/12/31 09:56:14;;;;;;;0.90;0.70;;;10.60;99.90;;;;;;5029953;28;20441;-81
2023/12/31 09:58:42;;;;;;;0.90;0.70;;;10.70;99.90;;;;;;5034875;28;20466;-82
2023/12/31 10:01:08;;;;;;;0.60;0.57;;;10.70;99.90;;;;;;5035183;28;20446;-82
2023/12/31 10:03:36;;;;;;;1.60;1.00;;;10.70;99.90;;;;;;5026643;28;20441;-82
2023/12/31 10:06:04;;;;;;;1.53;1.40;;;10.80;99.90;;;;;;5029903;28;20431;-82
2023/12/31 10:08:32;;;;;;;0.50;0.40;;;10.90;99.90;;;;;;5032622;28;20826;-82
2023/12/31 10:11:02;;;;;;;0.73;0.73;;;11.00;99.90;;;;;;5035554;28;20445;-82
2023/12/31 10:13:30;;;;;;;2.87;1.40;;;11.00;99.90;;;;;;5018108;28;20526;-82
2023/12/31 10:15:57;;;;;;;0.93;0.93;;;10.80;99.90;;;;;;5015400;28;20502;-82
2023/12/31 10:18:25;;;;;;;1.10;1.00;;;10.60;99.90;;;;;;5023547;28;20485;-83
2023/12/31 10:20:52;;;;;;;2.50;1.23;;;10.30;99.90;;;;;;5015502;28;20461;-82
2023/12/31 10:23:19;;;;;;;0.50;0.50;;;10.00;99.90;;;;;;5024684;28;20441;-82
2023/12/31 10:25:45;;;;;;;2.77;1.70;;;9.80;99.90;;;;;;5019185;28;20443;-82
2023/12/31 10:28:13;;;;;;;2.00;1.03;;;9.60;99.90;;;;;;5019196;28;20440;-83
2023/12/31 10:30:40;;;;;;;3.10;1.25;;;9.60;99.90;;;;;;5021528;28;20811;-83
2023/12/31 10:33:13;;;;;;;0.50;0.40;;;9.50;99.90;;;;;;5031413;28;20195;-81
2023/12/31 10:35:40;;;;;;;1.23;1.03;;;9.50;99.90;;;;;;5018680;28;20207;-81
2023/12/31 10:38:07;;;;;;;0.90;0.90;;;9.50;99.90;;;;;;5023514;28;20558;-82
2023/12/31 10:40:34;;;;;;;1.13;0.60;;;9.50;99.90;;;;;;5015325;28;20450;-82
2023/12/31 10:43:06;;;;;;;1.00;0.77;;;9.60;99.90;;;;;;5015045;28;20192;-82
2023/12/31 10:45:35;;;;;;;1.00;0.90;;;9.70;99.90;;;;;;5023025;28;20994;-82
2023/12/31 10:48:05;;;;;;;1.50;0.85;;;9.70;99.90;;;;;;5027895;28;20197;-81
2023/12/31 10:50:32;;;;;;;2.00;1.90;;;9.80;99.90;;;;;;5033846;28;20721;-82
2023/12/31 10:53:01;;;;;;;2.17;0.93;;;9.70;99.90;;;;;;5035057;28;20199;-82
2023/12/31 10:55:29;;;;;;;0.90;0.83;;;9.40;99.90;;;;;;5033682;28;20294;-81
2023/12/31 10:57:56;;;;;;;0.55;0.55;;;9.20;99.90;;;;;;5016339;28;20481;-82
2023/12/31 11:00:23;;;;;;;0.70;0.70;;;9.10;99.90;;;;;;5017230;28;20192;-82
2023/12/31 11:02:53;;;;;;;0.93;0.93;;;9.10;99.90;;;;;;5040889;22;20426;-79
2023/12/31 11:05:22;;;;;;;0.70;0.60;;;9.10;99.90;;;;;;5031489;28;20199;-78
2023/12/31 11:07:50;;;;;;;0.70;0.70;;;9.20;99.90;;;;;;5044270;28;20610;-79
2023/12/31 11:10:18;;;;;;;0.50;0.40;;;9.20;99.90;;;;;;5046026;28;20437;-78
2023/12/31 11:12:48;;;;;;;0.70;0.67;;;9.20;99.90;;;;;;5043824;28;20438;-78
2023/12/31 11:15:18;;;;;;;0.50;0.50;;;9.20;99.90;;;;;;5042379;28;20442;-79
2023/12/31 11:18:02;;;;;;;0.75;0.75;;;9.30;99.90;;;;;;5044133;28;20703;-79
2023/12/31 11:21:00;;;;;;;0.60;0.50;;;9.50;99.90;;;;;;5046006;28;20234;-79
2023/12/31 11:23:38;;;;;;;0.83;0.80;;;9.50;99.90;;;;;;5038231;28;20986;-78
2023/12/31 11:26:07;;;;;;;0.60;0.43;;;9.50;99.90;;;;;;5035452;28;20445;-78
2023/12/31 11:28:34;;;;;;;0.80;0.70;;;9.50;99.90;;;;;;5042211;28;20857;-79
2023/12/31 11:31:02;;;;;;;0.50;0.40;;;9.50;99.90;;;;;;5045851;28;20487;-78
2023/12/31 11:33:34;;;;;;;0.50;0.40;;;9.60;99.90;;;;;;5045563;28;20230;-78
2023/12/31 11:36:04;;;;;;;0.50;0.40;;;9.60;99.90;;;;;;5034273;28;20199;-78
2023/12/31 11:38:53;;;;;;;0.93;0.45;;;9.50;99.90;;;;;;5041684;28;20722;-78
2023/12/31 11:41:20;;;;;;;0.60;0.50;;;9.30;99.90;;;;;;5036918;28;20246;-78
2023/12/31 11:43:48;;;;;;;0.57;0.57;;;9.20;99.90;;;;;;5043519;28;20223;-79
2023/12/31 11:46:36;;;;;;;0.70;0.70;;;9.20;99.90;;;;;;5045254;28;20222;-78
2023/12/31 11:49:05;;;;;;;0.50;0.40;;;9.20;99.90;;;;;;5034272;28;20192;-79
2023/12/31 11:51:51;;;;;;;0.50;0.40;;;9.20;99.90;;;;;;5041985;28;20204;-78
2023/12/31 11:54:20;;;;;;;0.50;0.40;;;9.20;99.90;;;;;;5036395;28;20269;-78
2023/12/31 11:56:47;;;;;;;1.02;0.50;;;9.20;99.90;;;;;;5049842;28;20222;-79
2023/12/31 11:59:13;;;;;;;0.52;0.40;;;9.20;99.90;;;;;;5041444;28;20196;-78
2023/12/31 12:01:43;;;;;;;1.50;0.57;;;9.20;99.90;;;;;;5042387;28;20204;-78
2023/12/31 12:04:11;;;;;;;0.50;0.40;;;9.10;99.90;;;;;;5044789;28;20594;-78
2023/12/31 12:06:39;;;;;;;0.50;0.50;;;9.10;99.90;;;;;;5044388;28;20195;-77
2023/12/31 12:09:06;;;;;;;0.50;0.40;;;9.00;99.90;;;;;;5036830;28;20202;-78
2023/12/31 12:11:33;;;;;;;0.63;0.40;;;8.90;99.90;;;;;;5044904;28;20198;-78
2023/12/31 12:14:01;;;;;;;0.60;0.60;;;8.90;99.90;;;;;;5041317;28;20219;-78
2023/12/31 12:16:28;;;;;;;0.50;0.40;;;8.90;99.90;;;;;;5041276;28;20195;-79
2023/12/31 12:18:59;;;;;;;0.50;0.40;;;8.90;99.90;;;;;;5043356;28;20216;-77
2023/12/31 12:21:27;;;;;;;0.90;0.73;;;8.90;99.90;;;;;;5044814;28;20637;-77
2023/12/31 12:23:55;;;;;;;0.50;0.40;;;9.00;99.90;;;;;;5041882;28;20226;-78
2023/12/31 12:26:22;;;;;;;0.50;0.40;;;9.00;99.90;;;;;;5047418;28;20197;-77
2023/12/31 12:28:49;;;;;;;0.50;0.40;;;9.10;99.90;;;;;;5042837;28;20609;-78
2023/12/31 12:31:17;;;;;;;0.50;0.40;;;9.10;99.90;;;;;;5041007;28;20195;-78
2023/12/31 12:33:44;;;;;;;0.50;0.40;;;9.10;99.90;;;;;;5041543;28;20216;-78
2023/12/31 12:36:12;;;;;;;0.90;0.90;;;9.10;99.90;;;;;;5044161;28;20203;-78
2023/12/31 12:38:40;;;;;;;0.50;0.50;;;9.20;99.90;;;;;;5035647;28;20646;-75
2023/12/31 12:41:08;;;;;;;1.00;0.80;;;9.20;99.90;;;;;;5040558;28;20204;-78
2023/12/31 12:43:36;;;;;;;0.60;0.50;;;9.30;99.90;;;;;;5041035;28;20969;-79
2023/12/31 12:46:05;;;;;;;0.50;0.40;;;9.30;99.90;;;;;;5040614;28;20544;-77
2023/12/31 12:48:33;;;;;;;0.50;0.40;;;9.30;99.90;;;;;;5040535;28;20291;-78
2023/12/31 12:51:00;;;;;;;0.50;0.40;;;9.40;99.90;;;;;;5043279;28;20566;-77
2023/12/31 12:53:26;;;;;;;0.50;0.40;;;9.40;99.90;;;;;;5044246;28;20215;-77
2023/12/31 12:55:54;;;;;;;6.63;1.65;;;9.40;99.90;;;;;;5042049;28;20441;-78
2023/12/31 12:58:22;;;;;;;0.50;0.50;;;9.40;99.90;;;;;;5040415;28;20568;-78